Time;durP1;ratioP1;P1;durP2;ratioP2;P2;SDS_P1;SDS_P2;PMS_P1;PMS_P2;Temp;Humidity;BMP_temperature;BMP_pressure;BME280_temperature;BME280_humidity;BME280_pressure;Samples;Min_cycle;Max_cycle;Signal;HPM_P1;HPM_P2
2023/08/09 00:00:37;;;;;;;2.88;1.20;;;21.00;87.60;;;;;;5031077;28;20204;-61
2023/08/09 00:03:04;;;;;;;3.67;1.00;;;20.90;90.00;;;;;;5020915;28;20061;-62
2023/08/09 00:05:30;;;;;;;2.40;1.17;;;;;;;;;;5033780;28;20151;-62
2023/08/09 00:07:56;;;;;;;2.00;1.00;;;20.90;90.00;;;;;;5031542;28;20049;-65
2023/08/09 00:10:22;;;;;;;5.32;1.60;;;20.90;88.50;;;;;;5035426;28;20041;-62
2023/08/09 00:12:48;;;;;;;3.95;1.52;;;21.00;90.00;;;;;;5035936;28;20056;-61
2023/08/09 00:15:14;;;;;;;3.88;1.23;;;20.90;90.10;;;;;;5036794;28;20045;-62
2023/08/09 00:17:40;;;;;;;2.25;0.90;;;20.90;88.60;;;;;;5019166;28;20053;-63
2023/08/09 00:20:08;;;;;;;2.83;1.00;;;21.20;86.80;;;;;;5029082;28;20041;-63
2023/08/09 00:22:34;;;;;;;4.75;1.33;;;21.00;90.10;;;;;;5038173;28;20057;-62
2023/08/09 00:25:00;;;;;;;3.05;1.30;;;21.10;90.10;;;;;;5059842;28;20080;-68
2023/08/09 00:27:27;;;;;;;4.55;1.60;;;21.10;90.10;;;;;;5019001;28;20054;-66
2023/08/09 00:29:53;;;;;;;4.60;1.63;;;21.10;90.10;;;;;;5026405;28;20057;-69
2023/08/09 00:32:19;;;;;;;2.83;1.20;;;;;;;;;;5023435;28;20057;-66
2023/08/09 00:34:45;;;;;;;3.53;1.40;;;20.90;87.70;;;;;;5032147;28;20049;-67
2023/08/09 00:37:10;;;;;;;3.78;1.25;;;21.10;90.10;;;;;;5037783;28;20475;-61
2023/08/09 00:39:36;;;;;;;1.90;0.95;;;21.00;90.00;;;;;;5037316;28;20038;-62
2023/08/09 00:42:02;;;;;;;3.65;1.20;;;21.00;90.10;;;;;;5032621;28;20045;-61
2023/08/09 00:44:28;;;;;;;3.88;1.25;;;21.00;90.00;;;;;;5034193;28;20380;-68
2023/08/09 00:46:54;;;;;;;2.97;1.10;;;20.90;90.10;;;;;;5022325;28;20077;-69
2023/08/09 00:49:19;;;;;;;3.60;1.25;;;21.00;90.10;;;;;;5018601;28;20096;-62
2023/08/09 00:51:45;;;;;;;3.42;1.08;;;20.90;90.10;;;;;;5051383;28;20072;-64
2023/08/09 00:54:11;;;;;;;3.90;1.20;;;21.00;90.10;;;;;;5033168;28;20068;-62
2023/08/09 00:56:36;;;;;;;3.58;1.30;;;21.00;90.00;;;;;;5035923;28;20045;-61
2023/08/09 00:59:02;;;;;;;3.45;1.30;;;20.90;90.00;;;;;;5042669;28;20053;-61
2023/08/09 01:01:28;;;;;;;2.13;1.02;;;20.90;90.00;;;;;;5065788;28;20120;-62
2023/08/09 01:03:54;;;;;;;2.53;1.15;;;20.90;90.00;;;;;;5017154;28;20135;-63
2023/08/09 01:06:31;;;;;;;4.85;1.40;;;21.00;90.10;;;;;;5043985;28;20084;-69
2023/08/09 01:09:23;;;;;;;4.38;1.33;;;21.00;90.10;;;;;;5024336;28;20125;-68
2023/08/09 01:11:52;;;;;;;2.75;1.00;;;21.00;90.10;;;;;;5032246;28;20041;-63
2023/08/09 01:14:18;;;;;;;2.75;1.30;;;20.90;88.20;;;;;;5032693;28;20053;-62
2023/08/09 01:16:44;;;;;;;5.25;1.40;;;21.00;90.10;;;;;;5018293;28;20085;-63
2023/08/09 01:19:40;;;;;;;2.50;1.30;;;20.80;90.10;;;;;;4997619;28;20056;-62
2023/08/09 01:22:16;;;;;;;5.30;1.30;;;20.90;90.10;;;;;;5008115;28;20049;-70
2023/08/09 01:24:45;;;;;;;3.80;1.40;;;20.90;90.10;;;;;;5016973;28;20068;-62
2023/08/09 01:27:11;;;;;;;3.35;1.17;;;20.80;90.10;;;;;;5011193;28;20042;-68
2023/08/09 01:29:38;;;;;;;2.10;1.13;;;;;;;;;;5018890;28;20129;-63
2023/08/09 01:32:04;;;;;;;3.80;1.30;;;20.90;90.10;;;;;;5028353;28;20049;-62
2023/08/09 01:34:30;;;;;;;4.28;1.80;;;20.80;90.10;;;;;;5031945;28;20410;-61
2023/08/09 01:36:59;;;;;;;3.08;1.33;;;20.70;87.60;;;;;;5032597;28;20113;-65
2023/08/09 01:39:26;;;;;;;3.15;1.20;;;21.00;90.20;;;;;;5027475;28;20376;-62
2023/08/09 01:41:52;;;;;;;4.03;1.30;;;20.90;90.10;;;;;;5042046;28;20053;-67
2023/08/09 01:44:17;;;;;;;3.55;1.42;;;20.90;90.10;;;;;;5032096;28;20053;-62
2023/08/09 01:46:44;;;;;;;2.35;1.30;;;20.60;90.10;;;;;;5028759;28;20581;-62
2023/08/09 01:49:14;;;;;;;3.10;1.20;;;20.90;87.40;;;;;;5022544;28;20080;-61
2023/08/09 01:51:39;;;;;;;2.03;1.00;;;20.90;88.70;;;;;;5029465;28;20050;-63
2023/08/09 01:54:06;;;;;;;1.33;0.80;;;20.70;90.10;;;;;;5027749;28;20052;-62
2023/08/09 01:56:32;;;;;;;3.60;1.15;;;;;;;;;;5032176;28;20434;-62
2023/08/09 01:58:59;;;;;;;4.03;1.42;;;20.80;90.20;;;;;;5028929;28;20041;-61
2023/08/09 02:01:25;;;;;;;2.63;0.80;;;;;;;;;;5028216;28;20048;-61
2023/08/09 02:03:51;;;;;;;2.53;1.05;;;20.70;89.80;;;;;;5030949;28;20085;-68
2023/08/09 02:06:17;;;;;;;3.20;1.33;;;20.80;90.20;;;;;;5028178;28;20147;-62
2023/08/09 02:08:44;;;;;;;3.90;1.30;;;20.80;90.20;;;;;;5031851;28;20186;-61
2023/08/09 02:11:10;;;;;;;4.28;1.60;;;20.80;90.20;;;;;;5032738;28;20085;-61
2023/08/09 02:13:35;;;;;;;3.78;1.25;;;20.80;90.20;;;;;;5029849;28;20069;-62
2023/08/09 02:16:04;;;;;;;3.05;1.20;;;20.70;90.20;;;;;;5031925;28;20115;-61
2023/08/09 02:18:31;;;;;;;3.30;1.30;;;;;;;;;;5030726;28;20065;-61
2023/08/09 02:20:58;;;;;;;3.58;1.25;;;20.70;90.20;;;;;;5019638;28;20038;-62
2023/08/09 02:23:24;;;;;;;4.97;1.23;;;20.60;90.20;;;;;;5003395;28;20103;-61
2023/08/09 02:25:54;;;;;;;3.22;1.10;;;20.80;90.20;;;;;;5033732;28;20041;-61
2023/08/09 02:28:20;;;;;;;2.55;1.20;;;20.70;90.10;;;;;;5032420;28;20128;-61
2023/08/09 02:30:46;;;;;;;2.85;1.15;;;20.70;87.30;;;;;;5027468;28;20053;-61
2023/08/09 02:33:12;;;;;;;2.72;1.15;;;20.70;90.20;;;;;;5026953;28;20046;-61
2023/08/09 02:36:07;;;;;;;5.53;1.10;;;20.80;90.20;;;;;;5032692;28;20046;-61
2023/08/09 02:38:34;;;;;;;4.55;1.50;;;;;;;;;;5027593;28;20068;-63
2023/08/09 02:41:04;;;;;;;3.20;1.10;;;20.80;90.20;;;;;;5026002;28;20049;-61
2023/08/09 02:43:30;;;;;;;2.95;1.20;;;20.70;90.30;;;;;;5032471;28;20380;-61
2023/08/09 02:45:56;;;;;;;2.35;1.20;;;20.70;90.30;;;;;;5030058;28;20071;-61
2023/08/09 02:48:22;;;;;;;3.90;1.30;;;20.70;88.20;;;;;;5032122;28;20057;-62
2023/08/09 02:50:48;;;;;;;2.72;1.30;;;20.60;90.20;;;;;;5011328;28;20038;-61
2023/08/09 02:53:17;;;;;;;2.80;1.00;;;20.60;90.20;;;;;;4998576;28;21883;-61
2023/08/09 02:55:43;;;;;;;1.80;1.00;;;20.50;90.20;;;;;;5010597;28;20064;-63
2023/08/09 02:58:09;;;;;;;4.55;1.30;;;20.60;90.30;;;;;;5028280;28;20088;-65
2023/08/09 03:00:34;;;;;;;2.28;1.00;;;20.70;90.30;;;;;;5045870;28;20131;-62
2023/08/09 03:03:00;;;;;;;4.40;1.42;;;20.70;90.30;;;;;;5027268;28;20049;-62
2023/08/09 03:05:27;;;;;;;4.45;1.40;;;20.50;87.90;;;;;;5016347;28;20149;-63
2023/08/09 03:07:53;;;;;;;2.80;1.15;;;20.70;90.30;;;;;;5030597;28;20163;-62
2023/08/09 03:10:19;;;;;;;2.55;1.20;;;20.70;90.30;;;;;;5030689;28;20104;-61
2023/08/09 03:12:45;;;;;;;5.13;1.27;;;20.60;90.20;;;;;;5025224;28;20049;-61
2023/08/09 03:15:11;;;;;;;2.75;1.00;;;;;;;;;;5011951;28;20176;-67
2023/08/09 03:17:37;;;;;;;2.45;1.05;;;20.60;90.20;;;;;;5027943;28;20049;-62
2023/08/09 03:20:13;;;;;;;2.75;1.23;;;20.60;90.20;;;;;;5031438;28;20953;-63
2023/08/09 03:22:42;;;;;;;2.38;1.10;;;20.60;90.20;;;;;;5030635;28;20068;-62
2023/08/09 03:25:09;;;;;;;4.15;1.30;;;20.60;90.30;;;;;;5063018;28;20045;-61
2023/08/09 03:27:35;;;;;;;3.13;1.17;;;20.70;90.30;;;;;;5028258;28;20438;-62
2023/08/09 03:30:01;;;;;;;2.80;1.17;;;20.70;90.20;;;;;;5030200;28;20049;-63
2023/08/09 03:32:27;;;;;;;3.22;1.48;;;20.60;90.20;;;;;;5018993;28;20044;-63
2023/08/09 03:34:53;;;;;;;1.52;1.00;;;20.50;90.20;;;;;;5012653;28;20048;-61
2023/08/09 03:37:18;;;;;;;4.15;1.10;;;20.50;90.20;;;;;;5030338;28;20041;-64
2023/08/09 03:39:45;;;;;;;2.97;1.10;;;20.70;90.30;;;;;;5031524;28;20119;-61
2023/08/09 03:42:10;;;;;;;2.13;0.90;;;20.50;90.20;;;;;;5029142;28;20045;-62
2023/08/09 03:44:36;;;;;;;2.92;1.40;;;20.70;90.20;;;;;;5025971;28;20711;-63
2023/08/09 03:47:02;;;;;;;4.60;1.10;;;20.60;90.20;;;;;;5027015;28;20045;-62
2023/08/09 03:49:27;;;;;;;2.83;1.20;;;20.70;90.30;;;;;;5028202;28;20046;-70
2023/08/09 03:51:53;;;;;;;2.00;1.00;;;20.40;90.20;;;;;;5030606;28;20127;-61
2023/08/09 03:54:19;;;;;;;2.55;1.15;;;20.50;90.20;;;;;;5028130;28;20781;-62
2023/08/09 03:56:44;;;;;;;1.88;0.98;;;20.60;90.20;;;;;;5063288;28;20060;-64
2023/08/09 03:59:11;;;;;;;2.80;1.10;;;;;;;;;;5026404;28;20048;-68
2023/08/09 04:01:36;;;;;;;2.83;1.25;;;20.50;90.20;;;;;;5026740;28;20403;-66
2023/08/09 04:04:03;;;;;;;2.38;1.30;;;20.50;90.30;;;;;;5028376;28;20049;-64
2023/08/09 04:06:29;;;;;;;3.92;1.48;;;20.60;90.30;;;;;;5017394;28;20057;-68
2023/08/09 04:08:55;;;;;;;3.22;1.20;;;20.50;90.30;;;;;;5030136;28;20578;-66
2023/08/09 04:11:20;;;;;;;3.92;1.20;;;20.60;90.30;;;;;;5030452;28;20053;-68
2023/08/09 04:13:46;;;;;;;1.77;0.95;;;;;;;;;;5013457;28;20081;-63
2023/08/09 04:16:13;;;;;;;3.53;1.23;;;;;;;;;;5011029;28;20099;-62
2023/08/09 04:18:39;;;;;;;3.42;1.30;;;20.60;90.30;;;;;;5014420;28;20049;-66
2023/08/09 04:21:04;;;;;;;3.28;1.30;;;20.40;90.20;;;;;;5026080;28;20061;-64
2023/08/09 04:23:32;;;;;;;4.75;1.27;;;;;;;;;;5026429;28;20049;-61
2023/08/09 04:25:59;;;;;;;3.67;1.33;;;20.50;90.30;;;;;;5030939;28;20428;-66
2023/08/09 04:28:25;;;;;;;3.58;1.10;;;;;;;;;;5014219;28;20139;-68
2023/08/09 04:30:51;;;;;;;5.63;1.52;;;;;;;;;;5015619;28;20077;-65
2023/08/09 04:33:17;;;;;;;2.95;1.10;;;20.30;90.30;;;;;;5026936;28;20053;-61
2023/08/09 04:35:43;;;;;;;2.30;1.10;;;20.50;90.30;;;;;;5033150;28;20056;-61
2023/08/09 04:38:09;;;;;;;3.13;1.20;;;20.50;90.30;;;;;;5035821;28;20127;-62
2023/08/09 04:40:36;;;;;;;3.50;1.20;;;;;;;;;;5030709;28;20479;-65
2023/08/09 04:43:03;;;;;;;3.13;1.15;;;20.50;90.30;;;;;;5027009;28;20053;-62
2023/08/09 04:45:29;;;;;;;3.88;1.20;;;20.40;90.20;;;;;;5031908;28;20049;-62
2023/08/09 04:47:56;;;;;;;3.65;1.20;;;20.40;90.20;;;;;;5031643;28;20439;-62
2023/08/09 04:50:23;;;;;;;2.50;1.25;;;20.50;90.30;;;;;;5032151;28;20049;-61
2023/08/09 04:52:49;;;;;;;2.65;1.30;;;20.60;90.20;;;;;;5046830;28;20089;-66
2023/08/09 04:55:15;;;;;;;2.60;1.25;;;20.50;90.20;;;;;;5031723;28;20100;-66
2023/08/09 04:57:41;;;;;;;2.15;0.93;;;20.60;90.20;;;;;;5012748;28;20049;-61
2023/08/09 05:00:10;;;;;;;2.80;1.20;;;20.60;90.20;;;;;;5033254;28;20042;-61
2023/08/09 05:02:36;;;;;;;2.53;1.27;;;20.50;90.10;;;;;;5031029;28;20117;-69
2023/08/09 05:05:09;;;;;;;2.33;1.20;;;20.70;86.20;;;;;;5042888;28;20064;-60
2023/08/09 05:07:35;;;;;;;3.88;1.00;;;20.80;90.00;;;;;;5030486;28;20045;-61
2023/08/09 05:10:01;;;;;;;2.17;1.10;;;20.70;90.00;;;;;;5034856;28;20041;-62
2023/08/09 05:12:27;;;;;;;2.70;1.10;;;20.80;89.80;;;;;;5032780;28;20046;-61
2023/08/09 05:14:53;;;;;;;2.15;1.17;;;21.20;89.90;;;;;;5026446;28;20050;-62
2023/08/09 05:17:19;;;;;;;4.15;1.20;;;21.00;86.00;;;;;;5031292;28;20060;-68
2023/08/09 05:19:45;;;;;;;2.05;1.08;;;21.10;89.50;;;;;;5027439;28;20399;-61
2023/08/09 05:22:11;;;;;;;1.80;1.10;;;21.50;88.90;;;;;;5032530;28;20038;-65
2023/08/09 05:24:36;;;;;;;4.30;1.40;;;21.50;88.70;;;;;;5031559;28;20041;-62
2023/08/09 05:27:02;;;;;;;2.42;1.13;;;21.50;88.40;;;;;;5032934;28;20044;-61
2023/08/09 05:29:28;;;;;;;2.45;1.00;;;21.60;88.10;;;;;;5026317;28;20077;-61
2023/08/09 05:31:54;;;;;;;2.88;1.20;;;21.50;85.60;;;;;;5027617;28;20053;-69
2023/08/09 05:34:20;;;;;;;2.78;1.10;;;21.80;87.70;;;;;;5028906;28;20041;-63
2023/08/09 05:36:46;;;;;;;2.88;1.27;;;21.90;86.20;;;;;;5030206;28;20090;-63
2023/08/09 05:39:12;;;;;;;3.45;1.13;;;22.20;87.60;;;;;;5034328;28;20529;-62
2023/08/09 05:41:39;;;;;;;2.53;1.10;;;22.20;87.10;;;;;;5023453;28;20598;-68
2023/08/09 05:44:05;;;;;;;2.35;1.17;;;22.20;86.60;;;;;;5032824;28;20055;-64
2023/08/09 05:46:31;;;;;;;2.40;1.15;;;22.20;84.60;;;;;;5024568;28;20049;-63
2023/08/09 05:48:57;;;;;;;3.58;1.25;;;22.50;84.40;;;;;;5018084;28;20041;-63
2023/08/09 05:51:23;;;;;;;1.83;1.15;;;22.40;84.20;;;;;;5030561;28;20128;-62
2023/08/09 05:53:49;;;;;;;4.00;1.45;;;22.70;86.50;;;;;;5031367;28;20041;-62
2023/08/09 05:56:14;;;;;;;2.53;1.30;;;22.50;83.70;;;;;;5022977;28;20462;-64
2023/08/09 05:58:40;;;;;;;3.45;1.23;;;22.70;86.00;;;;;;5032692;28;20052;-61
2023/08/09 06:01:07;;;;;;;2.83;1.02;;;22.70;85.70;;;;;;5028443;28;20124;-62
2023/08/09 06:03:39;;;;;;;2.50;0.95;;;22.50;83.30;;;;;;5026271;28;20056;-65
2023/08/09 06:06:06;;;;;;;2.15;0.88;;;22.80;85.60;;;;;;5019581;28;20045;-66
2023/08/09 06:08:33;;;;;;;1.63;0.85;;;22.60;83.30;;;;;;5066093;28;20458;-61
2023/08/09 06:10:59;;;;;;;2.45;1.20;;;22.90;83.30;;;;;;5034171;28;20054;-61
2023/08/09 06:13:25;;;;;;;2.35;1.10;;;22.90;82.60;;;;;;5032403;28;20114;-61
2023/08/09 06:15:51;;;;;;;2.38;1.00;;;23.20;83.00;;;;;;5030100;28;20399;-62
2023/08/09 06:18:16;;;;;;;2.35;1.15;;;23.40;82.80;;;;;;5033177;28;20179;-63
2023/08/09 06:20:43;;;;;;;3.40;1.30;;;23.00;82.70;;;;;;5064927;28;20082;-62
2023/08/09 06:23:09;;;;;;;3.42;1.30;;;23.00;82.50;;;;;;5014371;28;20080;-64
2023/08/09 06:25:35;;;;;;;3.17;1.30;;;23.30;85.00;;;;;;5019137;28;20056;-62
2023/08/09 06:28:01;;;;;;;2.88;1.25;;;23.20;82.20;;;;;;5032623;28;20053;-65
2023/08/09 06:30:27;;;;;;;2.78;1.40;;;23.40;84.50;;;;;;5029112;28;20045;-64
2023/08/09 06:32:53;;;;;;;3.60;1.13;;;23.40;84.50;;;;;;5026317;28;20045;-69
2023/08/09 06:35:19;;;;;;;3.60;1.10;;;23.30;81.90;;;;;;5026695;28;20037;-63
2023/08/09 06:37:46;;;;;;;3.25;1.40;;;23.50;84.40;;;;;;5032873;28;20084;-62
2023/08/09 06:40:12;;;;;;;3.53;1.10;;;23.60;82.10;;;;;;5024960;28;20057;-66
2023/08/09 06:42:38;;;;;;;2.65;1.13;;;23.80;84.30;;;;;;5029020;28;20049;-61
2023/08/09 06:45:05;;;;;;;2.33;1.00;;;23.50;81.50;;;;;;5028443;28;20423;-67
2023/08/09 06:47:31;;;;;;;3.60;1.30;;;23.80;81.10;;;;;;5028764;28;20524;-62
2023/08/09 06:49:57;;;;;;;1.83;1.00;;;23.80;83.70;;;;;;5026357;28;20156;-71
2023/08/09 06:52:23;;;;;;;2.70;1.20;;;24.00;83.40;;;;;;5019041;28;20055;-65
2023/08/09 06:54:49;;;;;;;7.10;1.60;;;24.00;80.90;;;;;;5054143;28;20081;-75
2023/08/09 06:57:14;;;;;;;4.80;1.60;;;24.00;83.10;;;;;;5024543;28;20091;-63
2023/08/09 06:59:40;;;;;;;3.92;1.55;;;23.70;80.60;;;;;;5031841;28;20072;-63
2023/08/09 07:02:08;;;;;;;5.57;1.40;;;23.70;80.20;;;;;;5029879;28;20450;-64
2023/08/09 07:04:34;;;;;;;4.97;1.65;;;24.10;80.40;;;;;;5025829;28;20057;-63
2023/08/09 07:06:59;;;;;;;6.18;1.63;;;23.80;79.80;;;;;;5030686;28;20049;-63
2023/08/09 07:09:25;;;;;;;5.07;1.80;;;23.90;79.80;;;;;;5026145;28;20099;-62
2023/08/09 07:11:51;;;;;;;8.93;2.15;;;24.10;79.70;;;;;;5030343;28;20056;-62
2023/08/09 07:14:17;;;;;;;6.18;2.15;;;23.80;81.80;;;;;;5019638;28;20033;-69
2023/08/09 07:16:43;;;;;;;4.22;1.40;;;24.20;79.20;;;;;;5029727;28;20045;-63
2023/08/09 07:19:09;;;;;;;7.22;1.80;;;24.00;79.00;;;;;;5025931;28;20042;-63
2023/08/09 07:21:34;;;;;;;5.55;1.77;;;24.10;79.00;;;;;;5027142;28;20042;-62
2023/08/09 07:24:00;;;;;;;5.03;1.52;;;24.20;81.30;;;;;;5026641;28;20795;-72
2023/08/09 07:26:26;;;;;;;7.10;1.63;;;24.10;80.70;;;;;;5020901;28;20506;-73
2023/08/09 07:28:52;;;;;;;5.20;1.80;;;24.40;78.90;;;;;;5008706;28;20053;-75
2023/08/09 07:31:22;;;;;;;4.40;1.48;;;24.30;78.60;;;;;;5019077;28;20407;-71
2023/08/09 07:33:48;;;;;;;3.63;1.52;;;24.20;78.60;;;;;;5026892;28;20049;-72
2023/08/09 07:36:14;;;;;;;7.75;1.98;;;24.30;77.80;;;;;;5030901;28;20449;-74
2023/08/09 07:38:40;;;;;;;7.72;2.00;;;24.30;77.60;;;;;;5030352;28;20128;-63
2023/08/09 07:41:06;;;;;;;6.88;1.90;;;24.30;77.60;;;;;;5030353;28;20391;-63
2023/08/09 07:43:32;;;;;;;5.30;1.65;;;24.30;77.40;;;;;;5028809;28;20053;-63
2023/08/09 07:45:58;;;;;;;3.72;1.55;;;24.70;77.80;;;;;;5027993;28;20049;-67
2023/08/09 07:48:25;;;;;;;8.05;1.80;;;24.50;77.50;;;;;;5029546;28;20403;-69
2023/08/09 07:50:51;;;;;;;3.80;1.45;;;24.60;79.90;;;;;;5025289;28;20041;-65
2023/08/09 07:53:17;;;;;;;8.02;1.90;;;24.50;77.30;;;;;;5028827;28;20060;-63
2023/08/09 07:55:42;;;;;;;5.25;1.63;;;24.50;77.10;;;;;;5028200;28;20088;-62
2023/08/09 07:58:09;;;;;;;5.13;1.42;;;24.50;77.20;;;;;;5028490;28;20042;-63
2023/08/09 08:00:34;;;;;;;3.13;1.40;;;24.70;77.20;;;;;;5027172;28;20144;-75
2023/08/09 08:03:01;;;;;;;4.03;1.65;;;24.60;77.10;;;;;;5006299;28;20142;-65
2023/08/09 08:05:26;;;;;;;5.30;1.48;;;24.50;76.80;;;;;;5041382;28;20761;-70
2023/08/09 08:07:52;;;;;;;4.10;1.35;;;24.90;76.40;;;;;;5032686;28;20133;-69
2023/08/09 08:10:18;;;;;;;6.00;1.98;;;24.60;76.40;;;;;;5029421;28;20079;-68
2023/08/09 08:12:45;;;;;;;5.03;1.75;;;24.60;76.30;;;;;;5032433;28;20040;-69
2023/08/09 08:15:12;;;;;;;5.38;1.92;;;24.50;76.70;;;;;;5034030;28;20195;-64
2023/08/09 08:17:38;;;;;;;4.35;1.55;;;24.80;76.60;;;;;;5067269;28;20079;-65
2023/08/09 08:20:25;;;;;;;4.43;1.60;;;24.70;76.50;;;;;;5033200;28;20111;-66
2023/08/09 08:22:51;;;;;;;6.22;1.70;;;24.80;75.80;;;;;;5032159;28;20045;-72
2023/08/09 08:25:17;;;;;;;4.55;1.50;;;24.50;76.30;;;;;;5033522;28;20046;-63
2023/08/09 08:27:45;;;;;;;3.67;1.70;;;24.80;76.30;;;;;;5029930;28;20046;-62
2023/08/09 08:30:13;;;;;;;5.65;1.67;;;24.70;76.40;;;;;;5030401;28;20058;-62
2023/08/09 08:32:39;;;;;;;3.50;1.58;;;24.70;76.20;;;;;;5030209;28;20388;-64
2023/08/09 08:35:10;;;;;;;4.72;1.67;;;24.50;76.10;;;;;;5032543;28;20051;-62
2023/08/09 08:37:38;;;;;;;4.07;1.50;;;24.80;76.00;;;;;;5026462;28;20392;-62
2023/08/09 08:40:14;;;;;;;3.88;1.60;;;24.60;75.40;;;;;;5022463;28;20039;-61
2023/08/09 08:42:41;;;;;;;4.70;1.75;;;24.70;74.80;;;;;;5063842;28;20038;-63
2023/08/09 08:45:12;;;;;;;5.00;1.65;;;24.60;78.70;;;;;;5032524;28;20431;-61
2023/08/09 08:47:40;;;;;;;4.50;1.38;;;24.60;78.40;;;;;;5029703;28;20183;-65
2023/08/09 08:50:08;;;;;;;2.78;1.35;;;24.50;75.50;;;;;;5034924;28;20522;-72
2023/08/09 08:52:37;;;;;;;3.67;1.20;;;24.40;75.70;;;;;;5035423;28;20038;-66
2023/08/09 08:55:11;;;;;;;3.97;1.40;;;24.40;75.60;;;;;;5024258;28;20172;-67
2023/08/09 08:57:40;;;;;;;5.93;1.70;;;24.50;75.50;;;;;;5031486;28;20401;-62
2023/08/09 09:00:08;;;;;;;4.78;1.70;;;24.80;74.80;;;;;;5030561;28;20529;-64
2023/08/09 09:02:36;;;;;;;4.82;1.83;;;24.60;73.90;;;;;;5033710;28;20037;-62
2023/08/09 09:05:06;;;;;;;4.15;1.52;;;24.60;74.60;;;;;;5031173;28;20183;-68
2023/08/09 09:07:36;;;;;;;4.22;1.73;;;24.60;73.60;;;;;;5027221;28;20045;-74
2023/08/09 09:10:05;;;;;;;5.50;2.15;;;24.60;73.50;;;;;;5032019;28;20077;-68
2023/08/09 09:12:34;;;;;;;4.63;1.80;;;24.60;73.80;;;;;;5032441;28;20046;-62
2023/08/09 09:15:03;;;;;;;4.95;1.80;;;24.60;74.60;;;;;;5032645;28;20045;-61
2023/08/09 09:17:29;;;;;;;6.80;2.10;;;24.70;74.30;;;;;;5048602;28;20041;-67
2023/08/09 09:19:55;;;;;;;5.00;2.00;;;24.40;74.10;;;;;;5032742;28;20056;-67
2023/08/09 09:22:28;;;;;;;5.15;2.00;;;24.60;74.40;;;;;;5033907;28;20042;-68
2023/08/09 09:24:58;;;;;;;4.32;1.63;;;24.20;74.80;;;;;;5033983;28;20057;-63
2023/08/09 09:27:31;;;;;;;5.28;1.70;;;24.50;75.00;;;;;;5034142;28;20124;-70
2023/08/09 09:30:04;;;;;;;5.75;1.90;;;24.30;75.10;;;;;;5032886;28;20045;-65
2023/08/09 09:32:32;;;;;;;5.22;1.90;;;24.30;77.60;;;;;;5025611;28;20470;-64
2023/08/09 09:34:58;;;;;;;6.00;2.00;;;24.40;74.90;;;;;;5031108;28;20042;-64
2023/08/09 09:37:28;;;;;;;4.95;1.83;;;24.60;74.70;;;;;;5026846;28;20121;-67
2023/08/09 09:39:54;;;;;;;5.00;1.60;;;24.40;74.00;;;;;;5025341;28;20056;-72
2023/08/09 09:42:32;;;;;;;6.35;1.70;;;24.40;75.00;;;;;;5030084;28;20398;-69
2023/08/09 09:45:05;;;;;;;9.02;1.63;;;24.40;75.00;;;;;;5032273;28;20487;-67
2023/08/09 09:47:33;;;;;;;3.97;1.52;;;24.30;75.00;;;;;;5031563;28;20160;-62
2023/08/09 09:49:59;;;;;;;4.50;1.67;;;24.40;75.30;;;;;;5025594;28;20153;-64
2023/08/09 09:52:27;;;;;;;5.10;1.70;;;24.20;78.50;;;;;;5028992;28;20042;-66
2023/08/09 09:54:55;;;;;;;3.95;1.38;;;24.20;75.40;;;;;;5034457;28;20037;-61
2023/08/09 09:57:21;;;;;;;3.45;1.40;;;24.00;75.20;;;;;;5030944;28;20124;-62
2023/08/09 09:59:46;;;;;;;3.38;1.50;;;24.10;74.90;;;;;;5033834;28;20124;-62
2023/08/09 10:02:12;;;;;;;5.28;1.90;;;24.30;75.20;;;;;;5028735;28;20563;-61
2023/08/09 10:04:38;;;;;;;5.72;1.77;;;24.40;75.10;;;;;;5028999;28;20057;-61
2023/08/09 10:07:04;;;;;;;5.20;1.30;;;24.20;78.00;;;;;;5046997;28;20084;-61
2023/08/09 10:09:29;;;;;;;6.20;1.70;;;24.30;75.00;;;;;;5031939;28;20492;-61
2023/08/09 10:11:55;;;;;;;3.22;1.80;;;24.20;74.80;;;;;;5030317;28;20042;-63
2023/08/09 10:14:21;;;;;;;5.03;1.50;;;24.50;74.70;;;;;;5027208;28;20504;-61
2023/08/09 10:16:47;;;;;;;3.63;1.60;;;24.40;75.20;;;;;;5032615;28;20128;-61
2023/08/09 10:19:15;;;;;;;5.72;1.73;;;24.20;74.20;;;;;;5027462;28;20119;-61
2023/08/09 10:21:41;;;;;;;3.35;1.60;;;24.50;74.80;;;;;;5047391;28;20506;-60
2023/08/09 10:24:14;;;;;;;14.45;2.85;;;24.20;74.40;;;;;;5027600;28;20037;-61
2023/08/09 10:26:41;;;;;;;9.00;2.30;;;24.30;74.90;;;;;;5029712;28;20046;-61
2023/08/09 10:29:11;;;;;;;13.00;2.10;;;24.50;74.80;;;;;;5031078;28;20081;-61
2023/08/09 10:31:48;;;;;;;6.05;1.90;;;24.30;72.80;;;;;;5027837;28;20041;-62
2023/08/09 10:34:15;;;;;;;10.95;1.95;;;24.50;72.90;;;;;;5026785;28;20052;-64
2023/08/09 10:36:41;;;;;;;6.05;2.00;;;24.40;74.30;;;;;;5031870;28;20051;-70
2023/08/09 10:39:12;;;;;;;8.27;2.08;;;24.30;74.00;;;;;;5013872;28;20053;-62
2023/08/09 10:41:40;;;;;;;6.50;1.90;;;24.20;74.40;;;;;;5029605;28;20042;-67
2023/08/09 10:44:06;;;;;;;5.22;2.40;;;24.40;74.70;;;;;;5029244;28;20115;-61
2023/08/09 10:46:34;;;;;;;6.85;1.90;;;24.00;74.00;;;;;;5030158;28;20488;-62
2023/08/09 10:49:00;;;;;;;5.47;2.05;;;24.40;74.20;;;;;;5029536;28;20104;-61
2023/08/09 10:51:26;;;;;;;8.48;2.75;;;24.40;74.20;;;;;;5020647;28;20042;-62
2023/08/09 10:53:59;;;;;;;6.90;2.50;;;23.80;73.90;;;;;;5017186;28;20324;-61
2023/08/09 10:56:35;;;;;;;5.47;1.92;;;24.20;74.50;;;;;;5031490;28;20066;-61
2023/08/09 10:59:09;;;;;;;5.72;2.50;;;24.20;73.00;;;;;;5031796;28;20049;-61
2023/08/09 11:01:36;;;;;;;5.80;2.10;;;24.40;73.00;;;;;;5031238;28;20037;-61
2023/08/09 11:04:06;;;;;;;5.15;1.98;;;24.20;74.10;;;;;;5028644;28;20313;-63
2023/08/09 11:06:37;;;;;;;7.47;2.90;;;24.20;74.10;;;;;;5031815;28;20045;-61
2023/08/09 11:09:09;;;;;;;5.28;2.60;;;24.20;74.10;;;;;;5028596;28;20474;-63
2023/08/09 11:11:35;;;;;;;6.05;2.40;;;24.20;72.80;;;;;;5022624;28;20120;-61
2023/08/09 11:14:02;;;;;;;6.45;2.40;;;24.00;74.30;;;;;;5030177;28;20096;-61
2023/08/09 11:16:29;;;;;;;7.60;2.03;;;23.90;74.60;;;;;;5028022;28;20461;-61
2023/08/09 11:19:02;;;;;;;5.55;2.03;;;24.10;74.40;;;;;;5029346;28;20099;-62
2023/08/09 11:21:27;;;;;;;7.15;2.35;;;24.20;75.30;;;;;;5030081;28;20041;-61
2023/08/09 11:23:58;;;;;;;4.10;1.98;;;23.90;74.10;;;;;;5025956;28;20506;-63
2023/08/09 11:26:25;;;;;;;4.30;2.08;;;24.00;74.60;;;;;;5028119;28;20372;-61
2023/08/09 11:28:50;;;;;;;5.00;2.38;;;24.00;74.80;;;;;;5027001;28;20045;-61
2023/08/09 11:31:16;;;;;;;3.75;2.10;;;23.90;78.40;;;;;;5029816;28;20399;-61
2023/08/09 11:33:42;;;;;;;3.25;1.73;;;23.90;75.30;;;;;;5029881;28;20439;-61
2023/08/09 11:36:08;;;;;;;4.85;2.38;;;24.00;75.30;;;;;;5031022;28;20053;-61
2023/08/09 11:38:34;;;;;;;6.75;2.22;;;24.00;78.10;;;;;;5024285;28;20041;-61
2023/08/09 11:41:00;;;;;;;3.60;1.90;;;23.90;75.10;;;;;;5007846;28;20376;-61
2023/08/09 11:43:26;;;;;;;5.65;2.33;;;23.90;75.10;;;;;;5027727;28;20575;-61
2023/08/09 11:45:53;;;;;;;5.30;1.90;;;23.90;74.80;;;;;;5029459;28;20117;-62
2023/08/09 11:48:24;;;;;;;3.28;1.70;;;24.00;75.10;;;;;;5013786;28;20056;-63
2023/08/09 11:51:05;;;;;;;3.70;1.90;;;23.80;75.30;;;;;;5028194;28;20053;-62
2023/08/09 11:53:32;;;;;;;5.03;2.08;;;24.20;74.50;;;;;;5053810;28;20741;-63
2023/08/09 11:56:02;;;;;;;8.45;1.83;;;23.90;75.70;;;;;;5030978;28;20057;-69
2023/08/09 11:58:28;;;;;;;7.13;2.25;;;24.00;75.80;;;;;;5032359;28;20107;-63
2023/08/09 12:00:54;;;;;;;9.77;2.50;;;24.10;75.60;;;;;;5030556;28;20847;-63
2023/08/09 12:03:21;;;;;;;7.35;1.95;;;24.10;75.60;;;;;;5011328;28;20050;-63
2023/08/09 12:05:46;;;;;;;6.85;2.00;;;24.00;75.90;;;;;;5013096;28;20050;-63
2023/08/09 12:08:12;;;;;;;16.30;2.45;;;24.00;75.50;;;;;;5011071;28;20463;-76
2023/08/09 12:10:40;;;;;;;4.22;1.67;;;23.90;75.50;;;;;;5012391;28;20081;-63
2023/08/09 12:13:06;;;;;;;5.15;1.85;;;24.30;76.10;;;;;;5012301;28;20121;-63
2023/08/09 12:15:34;;;;;;;5.88;2.20;;;24.00;75.80;;;;;;5023252;28;20141;-63
2023/08/09 12:18:00;;;;;;;4.85;1.77;;;24.40;76.30;;;;;;5029792;28;20056;-62
2023/08/09 12:20:25;;;;;;;5.20;2.30;;;24.30;76.20;;;;;;5012000;28;20033;-64
2023/08/09 12:22:51;;;;;;;4.70;1.92;;;24.10;76.10;;;;;;5030728;28;20037;-61
2023/08/09 12:25:17;;;;;;;4.63;1.70;;;24.00;79.50;;;;;;5032133;28;20514;-63
2023/08/09 12:27:43;;;;;;;4.95;1.70;;;23.90;76.40;;;;;;5032144;28;20447;-64
2023/08/09 12:30:10;;;;;;;4.40;1.85;;;23.90;76.30;;;;;;5029969;28;20099;-63
2023/08/09 12:32:37;;;;;;;4.72;1.83;;;23.90;76.00;;;;;;5027338;28;20200;-73
2023/08/09 12:35:04;;;;;;;3.85;1.95;;;24.00;76.70;;;;;;5027411;28;20045;-71
2023/08/09 12:37:30;;;;;;;4.15;1.50;;;24.20;76.40;;;;;;5020034;28;20052;-76
2023/08/09 12:39:56;;;;;;;4.00;1.75;;;24.10;76.70;;;;;;5020768;28;20037;-64
2023/08/09 12:42:22;;;;;;;3.20;1.60;;;24.10;76.60;;;;;;5030811;28;20089;-64
2023/08/09 12:44:47;;;;;;;4.72;1.73;;;24.20;76.80;;;;;;5020900;28;20104;-62
2023/08/09 12:47:13;;;;;;;3.58;2.05;;;24.20;76.90;;;;;;5032024;28;20073;-63
2023/08/09 12:49:39;;;;;;;3.33;1.77;;;24.00;76.70;;;;;;5026096;28;20045;-63